Time;durP1;ratioP1;P1;durP2;ratioP2;P2;SDS_P1;SDS_P2;PMS_P1;PMS_P2;Temp;Humidity;BMP_temperature;BMP_pressure;BME280_temperature;BME280_humidity;BME280_pressure;Samples;Min_cycle;Max_cycle;Signal;HPM_P1;HPM_P2
2023/11/05 00:01:59;;;;;;;3.00;1.47;;;6.80;99.90;;;;;;5061858;28;20178;-60
2023/11/05 00:04:25;;;;;;;0.93;0.93;;;6.80;99.90;;;;;;5064517;28;20261;-60
2023/11/05 00:06:50;;;;;;;1.10;1.00;;;6.80;99.90;;;;;;5060155;28;20499;-60
2023/11/05 00:09:16;;;;;;;1.30;1.20;;;6.80;99.90;;;;;;5065236;28;20182;-60
2023/11/05 00:11:42;;;;;;;4.40;1.10;;;6.80;99.90;;;;;;5062662;28;20688;-60
2023/11/05 00:14:07;;;;;;;1.43;1.13;;;6.80;99.90;;;;;;5062825;28;20225;-60
2023/11/05 00:16:33;;;;;;;1.10;0.93;;;6.80;99.90;;;;;;5066457;28;20194;-60
2023/11/05 00:18:58;;;;;;;1.10;1.00;;;6.80;99.90;;;;;;5061298;28;20223;-60
2023/11/05 00:21:24;;;;;;;1.20;1.10;;;6.80;99.90;;;;;;5066197;28;20171;-60
2023/11/05 00:23:49;;;;;;;1.13;1.03;;;6.80;99.90;;;;;;5064500;28;20178;-61
2023/11/05 00:26:15;;;;;;;1.00;0.90;;;6.70;99.90;;;;;;5064680;28;20205;-60
2023/11/05 00:28:41;;;;;;;0.90;0.80;;;6.70;99.90;;;;;;5066657;28;20253;-60
2023/11/05 00:31:06;;;;;;;2.80;1.20;;;6.70;99.90;;;;;;5065241;28;20539;-60
2023/11/05 00:33:32;;;;;;;1.40;1.30;;;6.70;99.90;;;;;;5066245;28;20174;-61
2023/11/05 00:35:58;;;;;;;1.40;1.30;;;6.60;99.90;;;;;;5062037;28;20206;-60
2023/11/05 00:38:23;;;;;;;1.43;1.30;;;6.60;99.90;;;;;;5065223;28;20178;-60
2023/11/05 00:40:49;;;;;;;3.47;1.40;;;6.60;99.90;;;;;;5052888;28;20218;-59
2023/11/05 00:43:15;;;;;;;1.53;1.20;;;6.50;99.90;;;;;;5064568;28;20197;-60
2023/11/05 00:45:40;;;;;;;0.83;0.83;;;6.50;99.90;;;;;;5063522;28;20634;-60
2023/11/05 00:48:06;;;;;;;3.00;1.23;;;6.50;99.90;;;;;;5064442;28;20182;-60
2023/11/05 00:50:31;;;;;;;1.43;1.20;;;6.50;99.90;;;;;;5064062;28;20637;-60
2023/11/05 00:52:57;;;;;;;1.63;1.00;;;6.40;99.90;;;;;;5055285;28;20193;-60
2023/11/05 00:55:22;;;;;;;2.63;1.10;;;6.40;99.90;;;;;;5054944;28;20210;-60
2023/11/05 00:57:48;;;;;;;1.00;0.90;;;6.40;99.90;;;;;;5062088;28;20177;-60
2023/11/05 01:00:16;;;;;;;1.03;1.03;;;6.40;99.90;;;;;;5064127;28;20184;-60
2023/11/05 01:02:42;;;;;;;2.43;1.20;;;6.40;99.90;;;;;;5065609;28;20171;-60
2023/11/05 01:05:08;;;;;;;1.00;0.90;;;6.40;99.90;;;;;;5064853;28;20472;-60
2023/11/05 01:07:33;;;;;;;2.77;1.30;;;6.40;99.90;;;;;;5064006;28;20185;-60
2023/11/05 01:09:59;;;;;;;1.00;1.00;;;6.40;99.90;;;;;;5064377;28;20815;-60
2023/11/05 01:12:25;;;;;;;3.20;1.10;;;6.40;99.90;;;;;;5066027;28;20668;-60
2023/11/05 01:14:54;;;;;;;1.10;0.90;;;6.40;99.90;;;;;;5058693;28;20456;-60
2023/11/05 01:17:20;;;;;;;2.10;0.97;;;6.40;99.90;;;;;;5066725;28;20771;-60
2023/11/05 01:19:46;;;;;;;1.30;0.93;;;6.40;99.90;;;;;;5067647;28;20433;-59
2023/11/05 01:22:12;;;;;;;2.20;0.97;;;6.40;99.90;;;;;;5066540;28;20482;-60
2023/11/05 01:24:37;;;;;;;0.80;0.80;;;6.50;99.90;;;;;;5065105;28;20743;-61
2023/11/05 01:27:03;;;;;;;0.80;0.80;;;6.50;99.90;;;;;;5061440;28;20182;-60
2023/11/05 01:29:29;;;;;;;0.90;0.87;;;6.50;99.90;;;;;;5067174;28;20181;-60
2023/11/05 01:31:56;;;;;;;0.80;0.80;;;6.50;99.90;;;;;;5067128;28;20186;-59
2023/11/05 01:34:21;;;;;;;1.90;0.87;;;6.50;99.90;;;;;;5062587;28;20995;-60
2023/11/05 01:36:47;;;;;;;1.80;1.00;;;6.50;99.90;;;;;;5057149;28;20484;-60
2023/11/05 01:39:13;;;;;;;2.60;1.00;;;6.50;99.90;;;;;;5068658;28;20186;-60
2023/11/05 01:41:39;;;;;;;2.80;1.10;;;6.60;99.90;;;;;;5069071;28;20250;-60
2023/11/05 01:44:05;;;;;;;1.67;0.87;;;6.60;99.90;;;;;;5064795;28;20465;-60
2023/11/05 01:46:30;;;;;;;1.10;1.00;;;6.60;99.90;;;;;;5065963;28;20208;-60
2023/11/05 01:48:57;;;;;;;3.27;1.30;;;6.70;99.90;;;;;;5069448;28;20499;-59
2023/11/05 01:51:23;;;;;;;2.47;0.93;;;6.70;99.90;;;;;;5062620;28;20198;-60
2023/11/05 01:53:54;;;;;;;1.37;1.27;;;6.70;99.90;;;;;;5069492;28;20409;-60
2023/11/05 01:56:21;;;;;;;4.20;1.20;;;6.80;99.90;;;;;;5064205;28;20532;-60
2023/11/05 01:58:51;;;;;;;1.17;1.00;;;6.80;99.90;;;;;;5068034;28;20413;-60
2023/11/05 02:01:17;;;;;;;3.43;1.30;;;6.80;99.90;;;;;;5065460;28;20430;-60
2023/11/05 02:03:44;;;;;;;4.93;1.60;;;6.80;99.90;;;;;;5064116;28;20791;-60
2023/11/05 02:06:12;;;;;;;3.07;1.00;;;6.80;99.90;;;;;;5063559;28;22390;-60
2023/11/05 02:08:41;;;;;;;4.43;1.10;;;6.80;99.90;;;;;;5064123;28;20830;-60
2023/11/05 02:11:08;;;;;;;1.00;0.90;;;6.80;99.90;;;;;;5066838;28;20877;-60
2023/11/05 02:13:43;;;;;;;9.50;1.10;;;6.80;99.90;;;;;;5066562;28;20436;-60
2023/11/05 02:16:09;;;;;;;1.37;1.00;;;6.80;99.90;;;;;;5067698;28;20810;-60
2023/11/05 02:18:35;;;;;;;1.80;0.90;;;6.80;99.90;;;;;;5067598;28;20436;-61
2023/11/05 02:21:04;;;;;;;3.60;1.33;;;6.80;99.90;;;;;;5065428;28;20201;-60
2023/11/05 02:23:31;;;;;;;0.90;0.90;;;6.70;99.90;;;;;;5066570;28;20482;-60
2023/11/05 02:25:56;;;;;;;2.60;0.90;;;6.80;99.90;;;;;;5060453;28;20448;-60
2023/11/05 02:28:23;;;;;;;1.93;1.30;;;6.80;99.90;;;;;;5065043;28;20440;-60
2023/11/05 02:30:54;;;;;;;2.60;0.93;;;6.70;99.90;;;;;;5069185;28;20198;-61
2023/11/05 02:33:20;;;;;;;1.00;0.90;;;6.70;99.90;;;;;;5067326;28;20428;-60
2023/11/05 02:35:46;;;;;;;11.93;1.20;;;6.70;99.90;;;;;;5062105;28;21186;-60
2023/11/05 02:38:11;;;;;;;1.80;1.00;;;6.70;99.90;;;;;;5066424;28;20180;-60
2023/11/05 02:40:37;;;;;;;1.27;0.80;;;6.70;99.90;;;;;;5065697;28;20186;-61
2023/11/05 02:43:02;;;;;;;2.80;0.90;;;6.70;99.90;;;;;;5067725;28;20316;-60
2023/11/05 02:45:28;;;;;;;2.00;1.03;;;6.70;99.90;;;;;;5065856;28;20704;-60
2023/11/05 02:47:53;;;;;;;1.50;0.83;;;6.70;99.90;;;;;;5067738;28;20196;-60
2023/11/05 02:50:19;;;;;;;1.27;0.93;;;6.70;99.90;;;;;;5065971;28;20231;-60
2023/11/05 02:52:45;;;;;;;1.83;1.13;;;6.70;99.90;;;;;;5061911;28;20179;-61
2023/11/05 02:55:10;;;;;;;1.43;0.80;;;6.70;99.90;;;;;;5062619;28;20236;-60
2023/11/05 02:57:36;;;;;;;2.83;0.97;;;6.70;99.90;;;;;;5063900;28;20198;-60
2023/11/05 03:00:07;;;;;;;1.67;1.30;;;6.70;99.90;;;;;;5066244;28;20261;-59
2023/11/05 03:02:35;;;;;;;1.50;1.13;;;6.70;99.90;;;;;;5066145;28;21253;-60
2023/11/05 03:05:01;;;;;;;2.10;0.90;;;6.70;99.90;;;;;;5064356;28;20469;-60
2023/11/05 03:07:26;;;;;;;1.20;0.90;;;6.70;99.90;;;;;;5062700;28;20424;-60
2023/11/05 03:09:52;;;;;;;3.13;1.07;;;6.70;99.90;;;;;;5067812;28;20412;-60
2023/11/05 03:12:18;;;;;;;5.40;1.20;;;6.80;99.90;;;;;;5065816;28;20183;-60
2023/11/05 03:14:44;;;;;;;3.60;1.27;;;6.80;99.90;;;;;;5062809;28;20202;-59
2023/11/05 03:17:09;;;;;;;2.30;1.07;;;6.90;99.90;;;;;;5067867;28;20421;-60
2023/11/05 03:19:35;;;;;;;1.23;0.83;;;6.90;99.90;;;;;;5065335;28;20924;-60
2023/11/05 03:22:00;;;;;;;1.43;0.90;;;6.90;99.90;;;;;;5064813;28;20182;-60
2023/11/05 03:24:26;;;;;;;1.43;1.00;;;6.90;99.90;;;;;;5066429;28;20181;-60
2023/11/05 03:26:51;;;;;;;7.47;1.20;;;6.90;99.90;;;;;;5068031;28;20194;-60
2023/11/05 03:29:18;;;;;;;1.97;1.10;;;6.90;99.90;;;;;;5065971;28;20272;-60
2023/11/05 03:31:43;;;;;;;2.00;0.90;;;6.90;99.90;;;;;;5061875;28;20202;-60
2023/11/05 03:34:09;;;;;;;0.87;0.83;;;6.90;99.90;;;;;;5064731;28;21185;-60
2023/11/05 03:36:35;;;;;;;2.20;1.27;;;6.90;99.90;;;;;;5067350;28;20190;-61
2023/11/05 03:39:00;;;;;;;1.83;1.00;;;6.80;99.90;;;;;;5065233;28;20205;-60
2023/11/05 03:41:26;;;;;;;3.00;0.97;;;6.80;99.90;;;;;;5062198;28;20167;-60
2023/11/05 03:43:51;;;;;;;2.80;1.20;;;6.80;99.90;;;;;;5063364;28;20697;-60
2023/11/05 03:46:18;;;;;;;1.80;1.13;;;6.80;99.90;;;;;;5065557;28;20199;-60
2023/11/05 03:48:44;;;;;;;1.10;1.00;;;6.80;99.90;;;;;;5066321;28;20662;-60
2023/11/05 03:51:17;;;;;;;6.83;1.53;;;6.80;99.90;;;;;;5064797;28;20425;-60
2023/11/05 03:53:43;;;;;;;0.80;0.80;;;6.80;99.90;;;;;;5066859;28;20424;-60
2023/11/05 03:56:09;;;;;;;1.83;1.10;;;6.80;99.90;;;;;;5065824;28;20904;-60
2023/11/05 03:58:37;;;;;;;2.50;1.00;;;6.80;99.90;;;;;;5067427;28;20866;-60
2023/11/05 04:01:07;;;;;;;4.00;1.20;;;6.80;99.90;;;;;;5066015;28;20443;-60
2023/11/05 04:03:33;;;;;;;1.10;1.00;;;6.80;99.90;;;;;;5065023;28;20432;-60
2023/11/05 04:05:59;;;;;;;1.53;1.07;;;6.80;99.90;;;;;;5060476;28;20472;-60
2023/11/05 04:08:26;;;;;;;1.50;1.10;;;6.80;99.90;;;;;;5064015;28;20459;-61
2023/11/05 04:10:52;;;;;;;2.60;1.30;;;6.80;99.90;;;;;;5067364;28;20504;-60
2023/11/05 04:13:17;;;;;;;14.77;1.40;;;6.80;99.90;;;;;;5066336;28;20520;-60
2023/11/05 04:15:43;;;;;;;5.90;1.20;;;6.80;99.90;;;;;;5062413;28;20198;-60
2023/11/05 04:18:08;;;;;;;3.90;1.23;;;6.90;99.90;;;;;;5066306;28;20175;-60
2023/11/05 04:20:34;;;;;;;3.40;1.33;;;6.90;99.90;;;;;;5064600;28;20170;-60
2023/11/05 04:22:59;;;;;;;4.30;1.30;;;6.90;99.90;;;;;;5066213;28;20238;-60
2023/11/05 04:25:25;;;;;;;3.50;1.20;;;6.90;99.90;;;;;;5062128;28;20191;-60
2023/11/05 04:27:51;;;;;;;1.73;1.07;;;6.80;99.90;;;;;;5069136;28;20223;-60
2023/11/05 04:30:16;;;;;;;3.30;1.20;;;6.90;99.90;;;;;;5069996;28;20207;-60
2023/11/05 04:32:45;;;;;;;7.00;1.27;;;6.90;99.90;;;;;;5069681;28;21928;-60
2023/11/05 04:35:11;;;;;;;1.97;1.20;;;6.90;99.90;;;;;;5067667;28;20715;-60
2023/11/05 04:37:36;;;;;;;11.67;1.37;;;7.00;99.90;;;;;;5063279;28;20425;-60
2023/11/05 04:40:04;;;;;;;2.90;1.10;;;7.00;99.90;;;;;;5067415;28;20279;-59
2023/11/05 04:42:30;;;;;;;1.73;0.90;;;7.00;99.90;;;;;;5068353;28;20163;-60
2023/11/05 04:44:58;;;;;;;3.33;1.10;;;7.10;99.90;;;;;;5063070;28;21019;-60
2023/11/05 04:47:23;;;;;;;4.77;1.10;;;7.20;99.90;;;;;;5068157;28;20174;-60
2023/11/05 04:49:50;;;;;;;2.07;1.00;;;7.20;99.90;;;;;;5067390;28;20424;-61
2023/11/05 04:52:15;;;;;;;2.03;1.10;;;7.30;99.90;;;;;;5066784;28;20245;-59
2023/11/05 04:54:41;;;;;;;1.27;0.90;;;7.40;99.90;;;;;;5069930;28;20543;-57
2023/11/05 04:57:07;;;;;;;3.97;1.23;;;7.50;99.90;;;;;;5071128;28;20170;-58
2023/11/05 04:59:34;;;;;;;2.17;1.23;;;7.50;99.90;;;;;;5067581;28;20171;-58
2023/11/05 05:02:00;;;;;;;1.10;0.97;;;7.60;99.90;;;;;;5066411;28;20179;-59
2023/11/05 05:04:26;;;;;;;2.70;0.90;;;7.70;99.90;;;;;;5069669;28;20871;-59
2023/11/05 05:06:53;;;;;;;3.20;1.07;;;7.70;99.90;;;;;;5070690;28;20456;-59
2023/11/05 05:09:19;;;;;;;1.10;1.10;;;7.70;99.90;;;;;;5068048;28;20179;-60
2023/11/05 05:11:45;;;;;;;1.67;1.00;;;7.70;99.90;;;;;;5069489;28;20419;-60
2023/11/05 05:14:11;;;;;;;3.13;1.20;;;7.70;99.90;;;;;;5068101;28;20633;-59
2023/11/05 05:16:36;;;;;;;2.33;1.17;;;7.70;99.90;;;;;;5092661;22;20245;-53
2023/11/05 05:19:02;;;;;;;4.10;1.10;;;7.70;99.90;;;;;;5067749;28;20178;-56
2023/11/05 05:21:27;;;;;;;1.70;0.93;;;7.70;99.90;;;;;;5077717;28;20670;-57
2023/11/05 05:23:53;;;;;;;0.90;0.80;;;7.70;99.90;;;;;;5075101;28;20178;-58
2023/11/05 05:26:19;;;;;;;0.90;0.90;;;7.60;99.90;;;;;;5064949;28;20657;-57
2023/11/05 05:28:45;;;;;;;1.33;0.70;;;7.60;99.90;;;;;;5069918;28;20202;-53
2023/11/05 05:31:11;;;;;;;1.53;1.00;;;7.60;99.90;;;;;;5068236;28;20305;-56
2023/11/05 05:33:36;;;;;;;1.23;0.90;;;7.60;99.90;;;;;;5068500;28;20340;-57
2023/11/05 05:36:02;;;;;;;1.10;1.00;;;7.50;99.90;;;;;;5066409;28;21065;-58
2023/11/05 05:38:28;;;;;;;1.40;1.03;;;7.60;99.90;;;;;;5068595;28;20174;-56
2023/11/05 05:40:53;;;;;;;0.70;0.70;;;7.50;99.90;;;;;;5068945;28;20231;-57
2023/11/05 05:43:19;;;;;;;2.97;1.00;;;7.50;99.90;;;;;;5063194;28;20735;-57
2023/11/05 05:45:44;;;;;;;3.23;1.00;;;7.50;99.90;;;;;;5067431;28;20218;-56
2023/11/05 05:48:10;;;;;;;1.63;0.80;;;7.50;99.90;;;;;;5069880;28;20174;-57
2023/11/05 05:50:36;;;;;;;2.50;1.10;;;7.50;99.90;;;;;;5065899;28;20415;-57
2023/11/05 05:53:02;;;;;;;1.00;0.90;;;7.50;99.90;;;;;;5066958;28;20175;-59
2023/11/05 05:55:27;;;;;;;1.27;0.90;;;7.40;99.90;;;;;;5066530;28;20209;-61
2023/11/05 05:57:53;;;;;;;0.80;0.80;;;7.50;99.90;;;;;;5068631;28;20174;-58
2023/11/05 06:00:21;;;;;;;1.97;0.80;;;7.50;99.90;;;;;;5065274;28;20269;-61
2023/11/05 06:02:47;;;;;;;2.83;1.20;;;7.50;99.90;;;;;;5066952;28;20170;-57
2023/11/05 06:05:12;;;;;;;2.37;0.90;;;7.50;99.90;;;;;;5067431;28;20452;-56
2023/11/05 06:07:38;;;;;;;2.87;1.00;;;7.50;99.90;;;;;;5059078;28;20510;-57
2023/11/05 06:10:06;;;;;;;1.37;0.80;;;7.50;99.90;;;;;;5065619;28;20178;-55
2023/11/05 06:12:33;;;;;;;1.63;0.90;;;7.60;99.90;;;;;;5067869;28;20278;-58
2023/11/05 06:14:59;;;;;;;5.60;0.80;;;7.60;99.90;;;;;;5067600;28;20607;-56
2023/11/05 06:17:24;;;;;;;3.97;0.93;;;7.60;99.90;;;;;;5062298;28;20445;-55
2023/11/05 06:19:50;;;;;;;1.77;0.90;;;7.70;99.90;;;;;;5065361;28;20906;-57
2023/11/05 06:22:16;;;;;;;1.37;0.90;;;7.70;99.90;;;;;;5067831;28;20179;-56
2023/11/05 06:24:41;;;;;;;1.10;1.00;;;7.70;99.90;;;;;;5068426;28;20811;-57
2023/11/05 06:27:07;;;;;;;0.83;0.83;;;7.80;99.90;;;;;;5061289;28;20186;-56
2023/11/05 06:29:33;;;;;;;1.33;0.80;;;7.80;99.90;;;;;;5068313;28;20607;-59
2023/11/05 06:31:58;;;;;;;0.83;0.83;;;7.80;99.90;;;;;;5065536;28;20186;-55
2023/11/05 06:34:24;;;;;;;1.10;0.80;;;7.80;99.90;;;;;;5064114;28;20213;-57
2023/11/05 06:37:00;;;;;;;0.90;0.70;;;7.80;99.90;;;;;;5066323;28;20202;-56
2023/11/05 06:39:29;;;;;;;1.20;0.87;;;7.80;99.90;;;;;;5065074;28;20615;-58
2023/11/05 06:41:55;;;;;;;1.60;1.00;;;7.80;99.90;;;;;;5066069;28;20432;-58
2023/11/05 06:44:21;;;;;;;0.87;0.77;;;7.80;99.90;;;;;;5066023;28;20493;-55
2023/11/05 06:46:47;;;;;;;0.93;0.70;;;7.80;99.90;;;;;;5065490;28;20444;-57
2023/11/05 06:49:13;;;;;;;0.83;0.83;;;7.90;99.90;;;;;;5067469;28;20178;-57
2023/11/05 06:51:39;;;;;;;1.03;0.90;;;7.80;99.90;;;;;;5068519;28;20170;-57
2023/11/05 06:54:05;;;;;;;1.80;0.87;;;7.80;99.90;;;;;;5068110;28;20417;-56
2023/11/05 06:56:31;;;;;;;1.33;0.80;;;7.80;99.90;;;;;;5059865;28;20540;-56
2023/11/05 06:58:57;;;;;;;1.23;0.80;;;7.80;99.90;;;;;;5068134;28;20428;-58
2023/11/05 07:01:22;;;;;;;1.00;1.00;;;7.80;99.90;;;;;;5064919;28;20175;-60
2023/11/05 07:03:48;;;;;;;0.90;0.80;;;7.70;99.90;;;;;;5064967;28;20690;-56
2023/11/05 07:06:15;;;;;;;1.07;0.97;;;7.80;99.90;;;;;;5065904;28;20194;-55
2023/11/05 07:08:42;;;;;;;1.00;0.90;;;7.80;99.90;;;;;;5063848;28;20183;-57
2023/11/05 07:11:08;;;;;;;0.93;0.90;;;7.80;99.90;;;;;;5065872;28;20448;-57
2023/11/05 07:13:35;;;;;;;0.90;0.90;;;7.80;99.90;;;;;;5061811;28;20436;-56
2023/11/05 07:16:00;;;;;;;0.80;0.80;;;7.80;99.90;;;;;;5066218;28;20464;-55
2023/11/05 07:18:26;;;;;;;0.80;0.80;;;7.70;99.90;;;;;;5066601;28;20787;-57
2023/11/05 07:20:52;;;;;;;0.70;0.70;;;7.70;99.90;;;;;;5065559;28;20248;-57
2023/11/05 07:23:17;;;;;;;0.77;0.77;;;7.70;99.90;;;;;;5066835;28;20293;-55
2023/11/05 07:25:43;;;;;;;0.77;0.70;;;7.60;99.90;;;;;;5063724;28;20220;-56
2023/11/05 07:28:09;;;;;;;2.80;0.80;;;7.60;99.90;;;;;;5067096;28;20186;-56
2023/11/05 07:30:35;;;;;;;0.90;0.73;;;7.60;99.90;;;;;;5064794;28;20428;-55
2023/11/05 07:33:02;;;;;;;0.90;0.70;;;7.60;99.90;;;;;;5064937;28;20440;-56
2023/11/05 07:35:28;;;;;;;2.40;0.70;;;7.60;99.90;;;;;;5065569;28;20513;-59
2023/11/05 07:37:56;;;;;;;0.70;0.70;;;7.60;99.90;;;;;;5065729;28;20421;-56
2023/11/05 07:40:22;;;;;;;1.00;0.90;;;7.60;99.90;;;;;;5061040;28;20258;-60
2023/11/05 07:42:47;;;;;;;0.90;0.80;;;7.60;99.90;;;;;;5064963;28;20515;-56
2023/11/05 07:45:13;;;;;;;1.73;1.30;;;7.60;99.90;;;;;;5065629;28;20801;-56
2023/11/05 07:47:39;;;;;;;1.13;0.90;;;7.60;99.90;;;;;;5062790;28;20179;-62
2023/11/05 07:50:10;;;;;;;4.13;0.90;;;7.60;99.90;;;;;;5065582;28;20204;-58
2023/11/05 07:52:35;;;;;;;0.80;0.80;;;7.60;99.90;;;;;;5064364;28;20198;-56
2023/11/05 07:55:02;;;;;;;0.70;0.70;;;7.70;99.90;;;;;;5066899;28;20503;-57
2023/11/05 07:57:28;;;;;;;1.63;0.90;;;7.70;99.90;;;;;;5063923;28;20174;-60
2023/11/05 07:59:54;;;;;;;6.47;3.70;;;7.70;99.90;;;;;;5066620;28;20421;-57
2023/11/05 08:02:20;;;;;;;1.30;0.83;;;7.80;99.90;;;;;;5063151;28;20684;-61
2023/11/05 08:04:45;;;;;;;1.23;0.80;;;7.80;99.90;;;;;;5062579;28;20182;-56
2023/11/05 08:07:11;;;;;;;2.03;0.87;;;7.80;99.90;;;;;;5065885;28;20710;-61
2023/11/05 08:09:36;;;;;;;0.77;0.70;;;7.80;99.90;;;;;;5067020;28;20198;-56
2023/11/05 08:12:02;;;;;;;0.87;0.80;;;7.90;99.90;;;;;;5065983;28;20239;-56
2023/11/05 08:14:28;;;;;;;0.70;0.70;;;7.90;99.90;;;;;;5061037;28;20198;-57
2023/11/05 08:16:53;;;;;;;1.43;0.80;;;7.90;99.90;;;;;;5061501;28;20206;-56
2023/11/05 08:19:19;;;;;;;0.93;0.90;;;7.90;99.90;;;;;;5060399;28;20187;-57
2023/11/05 08:21:45;;;;;;;1.20;1.10;;;7.90;99.90;;;;;;5066211;28;20173;-57
2023/11/05 08:24:11;;;;;;;1.63;0.80;;;7.90;99.90;;;;;;5057385;28;20183;-58
2023/11/05 08:26:37;;;;;;;1.30;1.10;;;7.90;99.90;;;;;;5057304;28;20213;-59
2023/11/05 08:29:02;;;;;;;1.73;0.97;;;7.90;99.90;;;;;;5064654;28;20437;-55
2023/11/05 08:31:29;;;;;;;0.97;0.80;;;7.90;99.90;;;;;;5066664;28;20178;-57
2023/11/05 08:33:55;;;;;;;1.00;1.00;;;8.00;99.90;;;;;;5062824;28;20884;-56
2023/11/05 08:36:21;;;;;;;0.87;0.87;;;7.90;99.90;;;;;;5064136;28;20479;-59
2023/11/05 08:38:46;;;;;;;1.40;0.80;;;7.90;99.90;;;;;;5064844;28;20417;-57
2023/11/05 08:41:12;;;;;;;0.90;0.90;;;7.90;99.90;;;;;;5059629;28;20309;-61
2023/11/05 08:43:37;;;;;;;1.07;1.00;;;7.90;99.90;;;;;;5060734;28;20173;-56
2023/11/05 08:46:04;;;;;;;1.10;0.97;;;7.90;99.90;;;;;;5046967;28;20207;-57
2023/11/05 08:48:29;;;;;;;1.10;1.00;;;7.90;99.90;;;;;;5064271;28;20178;-58
2023/11/05 08:50:55;;;;;;;0.83;0.80;;;7.90;99.90;;;;;;5053276;28;21039;-59
2023/11/05 08:53:23;;;;;;;1.23;1.10;;;7.90;99.90;;;;;;5066044;28;20193;-59
2023/11/05 08:55:48;;;;;;;1.53;0.90;;;8.00;99.90;;;;;;5065929;28;20703;-59
2023/11/05 08:58:16;;;;;;;1.97;1.53;;;8.10;99.90;;;;;;5064556;28;20428;-58
2023/11/05 09:00:43;;;;;;;2.10;1.20;;;8.10;99.90;;;;;;5061773;28;20201;-56
2023/11/05 09:03:11;;;;;;;2.10;0.90;;;8.20;99.90;;;;;;5063667;28;20435;-59
2023/11/05 09:05:37;;;;;;;1.10;1.00;;;8.20;99.90;;;;;;5063009;28;20467;-61
2023/11/05 09:08:03;;;;;;;2.43;1.53;;;8.30;99.90;;;;;;5059486;28;20504;-56
2023/11/05 09:10:30;;;;;;;0.90;0.90;;;8.40;99.90;;;;;;5058532;28;20178;-57
2023/11/05 09:12:56;;;;;;;1.40;1.20;;;8.50;99.90;;;;;;5055908;28;20438;-58
2023/11/05 09:15:22;;;;;;;5.17;1.40;;;8.50;99.90;;;;;;5052894;28;20521;-61
2023/11/05 09:17:48;;;;;;;1.50;1.20;;;8.40;99.90;;;;;;5053992;28;20440;-59
2023/11/05 09:20:13;;;;;;;5.23;1.50;;;8.40;99.90;;;;;;5060280;28;20174;-57
2023/11/05 09:22:40;;;;;;;1.73;1.00;;;8.40;99.90;;;;;;5066893;28;20630;-60
2023/11/05 09:25:07;;;;;;;1.17;1.00;;;8.30;99.90;;;;;;5063293;28;20198;-59
2023/11/05 09:27:34;;;;;;;0.90;0.90;;;8.30;99.90;;;;;;5065899;28;20886;-60
2023/11/05 09:29:59;;;;;;;1.10;1.00;;;8.20;99.90;;;;;;5068860;28;20440;-58
2023/11/05 09:32:25;;;;;;;1.30;1.20;;;8.20;99.90;;;;;;5060993;28;20433;-62
2023/11/05 09:34:52;;;;;;;3.80;1.30;;;8.10;99.90;;;;;;5062098;28;20206;-56
2023/11/05 09:37:17;;;;;;;1.60;1.20;;;8.10;99.90;;;;;;5061193;28;20510;-58
2023/11/05 09:39:44;;;;;;;1.20;0.97;;;8.10;99.90;;;;;;5063030;28;20440;-57
2023/11/05 09:42:16;;;;;;;0.93;0.93;;;8.10;99.90;;;;;;5059477;28;20613;-56
2023/11/05 09:44:41;;;;;;;2.30;2.03;;;8.00;99.90;;;;;;5060773;28;20475;-56
2023/11/05 09:47:09;;;;;;;1.30;1.20;;;8.00;99.90;;;;;;5061824;28;20464;-56
2023/11/05 09:49:37;;;;;;;3.50;0.93;;;8.00;99.90;;;;;;5056097;28;20224;-58
2023/11/05 09:52:03;;;;;;;5.47;1.23;;;8.00;99.90;;;;;;5055540;28;20437;-58
2023/11/05 09:54:29;;;;;;;0.93;0.93;;;8.00;99.90;;;;;;5059613;28;20456;-55
2023/11/05 09:56:55;;;;;;;1.10;1.00;;;8.00;99.90;;;;;;5056609;28;20511;-55
2023/11/05 09:59:22;;;;;;;5.43;1.10;;;8.00;99.90;;;;;;5063157;28;20525;-51
2023/11/05 10:01:54;;;;;;;1.53;1.00;;;8.00;99.90;;;;;;5068078;28;20417;-53
2023/11/05 10:04:20;;;;;;;0.90;0.90;;;8.00;99.90;;;;;;5063741;28;20516;-55
2023/11/05 10:06:47;;;;;;;0.80;0.80;;;8.00;99.90;;;;;;5064026;28;20535;-55
2023/11/05 10:09:13;;;;;;;1.23;1.00;;;7.90;99.90;;;;;;5063288;28;20640;-56
2023/11/05 10:11:43;;;;;;;1.00;0.90;;;7.90;99.90;;;;;;5064966;28;20435;-56
2023/11/05 10:14:11;;;;;;;2.60;1.20;;;8.00;99.90;;;;;;5061678;28;20185;-55
2023/11/05 10:16:37;;;;;;;2.70;1.33;;;8.00;99.90;;;;;;5052596;28;20491;-57
2023/11/05 10:19:03;;;;;;;1.00;1.00;;;8.00;99.90;;;;;;5062045;28;20429;-57
2023/11/05 10:21:36;;;;;;;1.27;0.90;;;7.90;99.90;;;;;;5060311;28;20431;-56
2023/11/05 10:24:02;;;;;;;2.03;1.47;;;7.90;99.90;;;;;;5067643;28;20213;-60
2023/11/05 10:26:33;;;;;;;0.80;0.80;;;7.90;99.90;;;;;;5061299;28;20514;-54
2023/11/05 10:28:59;;;;;;;1.80;1.07;;;7.90;99.90;;;;;;5065489;28;20433;-58
2023/11/05 10:31:26;;;;;;;1.10;1.00;;;8.00;99.90;;;;;;5058510;28;20436;-56
2023/11/05 10:33:53;;;;;;;0.80;0.80;;;8.00;99.90;;;;;;5062164;28;21156;-57
2023/11/05 10:36:20;;;;;;;1.67;1.20;;;7.90;99.90;;;;;;5058816;28;20470;-54
2023/11/05 10:38:48;;;;;;;1.20;1.00;;;8.00;99.90;;;;;;5063973;28;20507;-53
2023/11/05 10:41:17;;;;;;;2.70;1.40;;;8.00;99.90;;;;;;5065690;28;20420;-55
2023/11/05 10:43:47;;;;;;;1.33;1.23;;;8.00;99.90;;;;;;5062264;28;21227;-54
2023/11/05 10:46:16;;;;;;;1.80;1.20;;;8.00;99.90;;;;;;5059792;28;20456;-57
2023/11/05 10:48:42;;;;;;;1.50;1.37;;;8.00;99.90;;;;;;5062851;28;20447;-54
2023/11/05 10:51:09;;;;;;;1.17;1.10;;;8.10;99.90;;;;;;5060349;28;20841;-58
2023/11/05 10:53:35;;;;;;;1.57;1.47;;;8.10;99.90;;;;;;5063039;28;20432;-57
2023/11/05 10:56:00;;;;;;;1.70;1.13;;;8.10;99.90;;;;;;5062431;28;20472;-54
2023/11/05 10:58:40;;;;;;;1.50;1.20;;;8.10;99.90;;;;;;5066901;28;20252;-56
2023/11/05 11:01:14;;;;;;;1.73;1.30;;;8.20;99.90;;;;;;5054726;28;20194;-57
2023/11/05 11:03:39;;;;;;;1.53;1.43;;;8.20;99.90;;;;;;5057304;28;20453;-57
2023/11/05 11:06:07;;;;;;;1.93;1.20;;;8.20;99.90;;;;;;5058722;28;20491;-56
2023/11/05 11:08:34;;;;;;;1.10;1.10;;;8.20;99.90;;;;;;5061498;28;20789;-58
2023/11/05 11:11:08;;;;;;;1.23;1.13;;;8.30;99.90;;;;;;5059357;28;20521;-57
2023/11/05 11:13:34;;;;;;;1.73;1.37;;;8.30;99.90;;;;;;5063375;28;20428;-57
2023/11/05 11:16:01;;;;;;;3.43;1.70;;;8.30;99.90;;;;;;5066023;28;20460;-58
2023/11/05 11:18:29;;;;;;;2.60;1.60;;;8.40;99.90;;;;;;5059610;28;20889;-57
2023/11/05 11:20:56;;;;;;;2.60;1.87;;;8.50;99.90;;;;;;5057959;28;20795;-59
2023/11/05 11:23:22;;;;;;;1.33;1.20;;;8.50;99.90;;;;;;5061748;28;20468;-55
2023/11/05 11:26:17;;;;;;;1.83;1.63;;;8.70;99.90;;;;;;5064078;28;20539;-52
2023/11/05 11:28:46;;;;;;;2.60;1.67;;;8.70;99.90;;;;;;5065821;28;20419;-52
2023/11/05 11:31:12;;;;;;;1.27;1.10;;;8.70;99.90;;;;;;5060048;28;20432;-57
2023/11/05 11:33:38;;;;;;;2.33;1.27;;;8.80;99.90;;;;;;5054373;28;20451;-52
2023/11/05 11:36:07;;;;;;;1.30;1.20;;;8.90;99.90;;;;;;5057467;28;20473;-52
2023/11/05 11:38:33;;;;;;;1.23;1.13;;;9.00;99.90;;;;;;5058379;28;21014;-58
2023/11/05 11:40:59;;;;;;;1.00;1.00;;;9.10;99.90;;;;;;5057675;28;20436;-54
2023/11/05 11:43:28;;;;;;;1.30;1.20;;;9.20;99.90;;;;;;5054211;28;20179;-51
2023/11/05 11:45:54;;;;;;;1.50;1.20;;;9.20;99.90;;;;;;5051386;28;20472;-60
2023/11/05 11:48:26;;;;;;;1.73;1.07;;;9.20;99.90;;;;;;5054817;28;20811;-55
2023/11/05 11:51:00;;;;;;;1.23;1.03;;;9.20;99.90;;;;;;5052250;28;20440;-56
2023/11/05 11:53:29;;;;;;;2.20;1.47;;;9.20;99.90;;;;;;5058016;28;20439;-57
2023/11/05 11:55:57;;;;;;;1.23;1.10;;;9.20;99.90;;;;;;5049347;28;20468;-52
2023/11/05 11:58:30;;;;;;;2.30;1.40;;;9.20;99.90;;;;;;5054405;28;20429;-58
2023/11/05 12:00:57;;;;;;;2.60;1.57;;;9.20;99.90;;;;;;5050416;28;20445;-55
2023/11/05 12:03:24;;;;;;;7.00;3.47;;;9.10;99.90;;;;;;5058963;28;20447;-54
2023/11/05 12:05:52;;;;;;;2.40;1.83;;;9.10;99.90;;;;;;5055545;28;21280;-53
2023/11/05 12:08:43;;;;;;;2.50;1.53;;;9.10;99.90;;;;;;5058154;28;20436;-52
2023/11/05 12:11:13;;;;;;;1.93;1.30;;;9.10;99.90;;;;;;5054860;28;20429;-56
2023/11/05 12:13:42;;;;;;;2.80;1.10;;;9.20;99.90;;;;;;5055333;28;21182;-54
2023/11/05 12:16:09;;;;;;;3.50;2.40;;;9.10;99.90;;;;;;5049436;28;20460;-60
2023/11/05 12:18:35;;;;;;;1.70;1.57;;;9.10;99.90;;;;;;5050944;28;20899;-52
2023/11/05 12:21:02;;;;;;;1.20;1.10;;;9.10;99.90;;;;;;5056855;28;20440;-61
2023/11/05 12:23:28;;;;;;;2.93;1.20;;;9.10;99.90;;;;;;5059004;28;20452;-53
2023/11/05 12:25:58;;;;;;;1.57;1.30;;;9.10;99.90;;;;;;5057215;28;20464;-55
2023/11/05 12:28:24;;;;;;;1.33;1.13;;;9.10;99.90;;;;;;5057499;28;20429;-52
2023/11/05 12:30:51;;;;;;;1.30;1.20;;;9.00;99.90;;;;;;5059683;28;20812;-54
2023/11/05 12:33:16;;;;;;;1.13;1.10;;;9.00;99.90;;;;;;5055627;28;20206;-52
2023/11/05 12:35:42;;;;;;;3.03;1.40;;;9.00;99.90;;;;;;5055811;28;20545;-57
2023/11/05 12:38:08;;;;;;;1.50;1.27;;;9.00;99.90;;;;;;5046620;28;20672;-60
2023/11/05 12:40:34;;;;;;;4.23;1.40;;;9.00;99.90;;;;;;5051324;28;21498;-59
2023/11/05 12:43:00;;;;;;;1.53;1.43;;;9.00;99.90;;;;;;5054709;28;20432;-57
2023/11/05 12:45:26;;;;;;;3.70;1.40;;;9.10;99.90;;;;;;5054106;28;20475;-57
2023/11/05 12:47:52;;;;;;;1.53;1.43;;;9.00;99.90;;;;;;5053785;28;20182;-58
2023/11/05 12:50:18;;;;;;;3.33;1.93;;;9.00;99.90;;;;;;5058704;28;20445;-58
2023/11/05 12:52:43;;;;;;;1.90;1.70;;;9.00;99.90;;;;;;5051212;28;20809;-58
2023/11/05 12:55:10;;;;;;;2.00;1.50;;;9.00;99.90;;;;;;5060394;28;20212;-58